Hauptseite
METAR-TAF:

METAR-TAF

Flughäfen :

Pápa, Ungarn

Breite: 47-12N, Länge: 017-30E, Höhe: 145 m

Beobachtung

Neuester Wetterbericht von vor 39 Minuten, um 08:15 UTC
Wind 9 kt aus Süd/Südwest
Temperatur 22°C
Luftfeuchtigkeit 57%
Luftdruck 1021 hPa
Sichtweite 10 km oder mehr
keine Wolken unter 1500 m und keine Kumulonimbus oder Gewitterwolken

METAR: LHPA 140815Z 21009KT CAVOK 22/13 Q1021 NOSIG RMK BLU

Zeit: 10:54 (08:54 UTC)

Prognose

Neuester Wetterbericht von vor 3 Stunden und 39 Minuten, um 05:15 UTC
Gültige Prognose vom 14 um 06 UTC bis 15 um 06 UTC
Wind 6 kt aus Süd/Südwest
Sichtweite 10 km oder mehr
keine Wolken unter 1500 m und keine Kumulonimbus oder Gewitterwolken
Übergehend zu
vom 14 um 14 UTC bis 14 um 17 UTC
Wind 3 kt aus unterschiedlichen Richtungen
Zeitweise
vom 15 um 00 UTC bis 15 um 06 UTC
Wind 6 kt aus Süd

TAF: LHPA 140515Z 1406/1506 20006KT CAVOK BECMG 1414/1417 VRB03KT TEMPO 1500/1506 18006KT

Wetterbeobachtungen und Prognosen von mehr als 4000 Flughäfen (METAR und TAF Bericht).

Die verfügbaren Stationen werden durch gelbe und rote Markierungen auf der Karte dargestellt.

Führen Sie die Maus auf sie, um den Namen der Station zu sehen.

Darauf klicken, um die Beobachtung von Wetterbeobachtungen und Prognosen zu sehen.

Um die Karte zu ändern : klicken Sie auf den grünen Tasten mit einem schwarzen Kreuz Zum Vergrößern, auf den grünen Button mit einem Gedankenstrich zu verkleinern, oder auf die grünen Pfeile für benachbarte Karten.


METAR-TAF: